Time;durP1;ratioP1;P1;durP2;ratioP2;P2;SDS_P1;SDS_P2;PMS_P1;PMS_P2;Temp;Humidity;BMP_temperature;BMP_pressure;BME280_temperature;BME280_humidity;BME280_pressure;Samples;Min_cycle;Max_cycle;Signal;HPM_P1;HPM_P2
2022/01/30 00:00:00;;;;;;;43.53;10.63;;;9.30;99.90;;;9.34;72.59;102670.63;5072521;28;20052;-63
2022/01/30 00:02:30;;;;;;;45.08;9.63;;;9.30;99.90;;;9.18;73.83;102662.16;5072865;28;20041;-62
2022/01/30 00:04:58;;;;;;;48.05;9.73;;;9.20;99.90;;;9.09;74.18;102655.78;5072355;28;20484;-61
2022/01/30 00:07:27;;;;;;;39.70;10.10;;;9.10;99.90;;;9.29;75.17;102674.84;5071335;28;20052;-62
2022/01/30 00:09:55;;;;;;;42.65;9.93;;;9.10;99.90;;;9.18;75.72;102683.28;5071982;28;20045;-63
2022/01/30 00:12:33;;;;;;;46.88;10.88;;;9.00;99.90;;;9.21;75.97;102686.94;5072199;28;20090;-63
2022/01/30 00:15:02;;;;;;;43.53;10.05;;;9.00;99.90;;;9.12;76.28;102691.94;5071935;28;20477;-63
2022/01/30 00:17:38;;;;;;;56.83;10.32;;;9.00;99.90;;;8.99;76.39;102679.22;5071611;28;20231;-63
2022/01/30 00:20:14;;;;;;;42.85;9.63;;;8.90;99.90;;;9.02;76.29;102674.00;5071881;28;20048;-64
2022/01/30 00:22:48;;;;;;;41.08;9.10;;;8.90;99.90;;;9.07;75.57;102672.44;5072439;28;20045;-63
2022/01/30 00:25:24;;;;;;;41.55;8.55;;;8.90;99.90;;;9.05;75.93;102675.03;5072087;28;20078;-63
2022/01/30 00:28:02;;;;;;;43.80;8.43;;;8.90;99.90;;;9.05;76.28;102684.69;5071809;28;20048;-63
2022/01/30 00:30:34;;;;;;;40.33;9.70;;;8.90;99.90;;;9.02;76.06;102687.22;5071845;28;20516;-63
2022/01/30 00:33:05;;;;;;;46.65;8.38;;;8.90;99.90;;;8.95;76.16;102688.78;5070604;28;20453;-63
2022/01/30 00:35:36;;;;;;;43.45;9.25;;;8.80;99.90;;;8.91;76.23;102696.53;5070492;28;20052;-63
2022/01/30 00:38:07;;;;;;;;;;;8.80;99.90;;;8.88;76.26;102685.91;5072421;28;20057;-63
2022/01/30 00:40:36;;;;;;;44.28;8.57;;;8.80;99.90;;;8.95;75.98;102691.41;5070528;28;19924;-63
2022/01/30 00:43:08;;;;;;;48.47;10.07;;;8.80;99.90;;;8.86;76.58;102695.50;5070285;28;20044;-63
2022/01/30 00:45:37;;;;;;;44.72;9.20;;;8.80;99.90;;;8.81;76.92;102691.81;5071156;28;20482;-63
2022/01/30 00:48:08;;;;;;;51.78;10.13;;;8.70;99.90;;;8.96;76.96;102697.59;5071709;28;20032;-63
2022/01/30 00:50:36;;;;;;;;;;;8.70;99.90;;;8.93;76.93;102710.69;5087505;28;20059;-63
2022/01/30 00:53:06;;;;;;;45.50;9.38;;;8.70;99.90;;;8.90;76.71;102698.28;5070253;28;20285;-63
2022/01/30 00:55:34;;;;;;;47.38;9.55;;;8.80;99.90;;;8.84;76.79;102706.03;5070114;28;20075;-63
2022/01/30 00:58:04;;;;;;;52.80;10.15;;;8.70;99.90;;;8.88;76.55;102713.16;5070065;28;20057;-63
2022/01/30 01:00:33;;;;;;;38.33;9.65;;;8.70;99.90;;;8.83;76.54;102688.38;5069991;28;20052;-65
2022/01/30 01:03:03;;;;;;;52.15;10.07;;;8.70;99.90;;;8.51;76.81;102673.28;5071210;28;20076;-63
2022/01/30 01:05:36;;;;;;;48.00;11.02;;;8.60;99.90;;;8.81;76.87;102710.28;5071182;28;20533;-63
2022/01/30 01:08:13;;;;;;;40.17;11.00;;;8.60;99.90;;;8.85;76.62;102714.81;5071633;28;20043;-63
2022/01/30 01:10:49;;;;;;;43.25;9.15;;;8.70;99.90;;;8.83;76.45;102716.50;5071438;28;20040;-63
2022/01/30 01:13:44;;;;;;;49.10;10.00;;;8.70;99.90;;;8.83;76.25;102680.47;5071564;28;20053;-63
2022/01/30 01:24:32;;;;;;;52.25;9.63;;;8.70;99.90;;;8.79;75.78;102715.53;5071345;28;20045;-63
2022/01/30 01:27:00;;;;;;;45.33;9.35;;;8.70;99.90;;;8.96;75.23;102716.06;5071322;28;20068;-63
2022/01/30 01:29:29;;;;;;;47.60;9.93;;;8.80;99.90;;;8.93;75.11;102727.41;5070935;28;20486;-63
2022/01/30 01:31:57;;;;;;;38.40;8.65;;;8.80;99.90;;;8.81;75.57;102720.84;5071369;28;20517;-63
2022/01/30 01:34:31;;;;;;;48.40;10.40;;;8.70;99.90;;;8.81;75.46;102716.47;5071304;28;20105;-63
2022/01/30 01:37:01;;;;;;;42.75;9.77;;;8.70;99.90;;;8.93;75.80;102730.06;5071372;28;20094;-63
2022/01/30 01:39:29;;;;;;;46.38;9.75;;;8.70;99.90;;;8.79;75.69;102719.88;5069901;28;20538;-63
2022/01/30 01:41:58;;;;;;;40.85;9.52;;;8.70;99.90;;;8.80;75.61;102729.63;5069872;28;20051;-63
2022/01/30 01:44:34;;;;;;;53.63;9.68;;;8.60;99.90;;;8.79;75.72;102725.16;5071354;28;20048;-63
2022/01/30 01:47:04;;;;;;;40.10;9.70;;;8.60;99.90;;;8.86;75.20;102724.53;5071259;28;20049;-63
2022/01/30 01:49:34;;;;;;;48.05;9.90;;;8.70;99.90;;;8.96;74.60;102716.94;5069987;28;20444;-63
2022/01/30 01:52:18;;;;;;;45.45;9.57;;;8.80;99.90;;;9.04;74.13;102723.38;5070213;28;20055;-63
2022/01/30 01:54:49;;;;;;;37.67;8.77;;;8.90;99.90;;;8.94;73.36;102726.56;5070139;28;20052;-63
2022/01/30 01:57:18;;;;;;;44.35;8.90;;;8.80;99.90;;;8.79;73.46;102717.25;5073484;28;20056;-63
2022/01/30 01:59:56;;;;;;;47.45;9.25;;;8.70;99.90;;;8.80;73.08;102730.53;5073123;28;20048;-63
2022/01/30 02:02:42;;;;;;;45.67;9.27;;;8.70;99.90;;;8.66;73.09;102722.97;5074457;28;20049;-63
2022/01/30 02:05:11;;;;;;;37.22;8.45;;;8.50;99.90;;;8.71;72.68;102732.84;5074543;28;20098;-63
2022/01/30 02:10:52;;;;;;;36.03;9.18;;;8.60;99.90;;;8.59;72.72;102735.09;5012386;28;20054;-64
2022/01/30 02:13:53;;;;;;;36.67;8.43;;;8.50;99.90;;;8.73;72.34;102738.19;5012093;28;20054;-63
2022/01/30 02:25:24;;;;;;;35.63;7.85;;;8.60;99.90;;;8.60;70.72;102751.78;5072965;28;20045;-63
2022/01/30 02:27:56;;;;;;;38.65;8.30;;;8.50;99.90;;;8.85;70.58;102755.31;5072693;28;20052;-63
2022/01/30 02:30:31;;;;;;;33.25;8.05;;;8.60;99.90;;;8.69;69.93;102757.41;5073909;28;20355;-63
2022/01/30 02:33:00;;;;;;;28.50;6.90;;;8.50;99.90;;;8.51;70.23;102733.03;5072681;28;20131;-63
2022/01/30 02:35:28;;;;;;;32.78;7.93;;;8.40;99.90;;;8.63;69.73;102733.44;5072629;28;20052;-63
2022/01/30 02:37:59;;;;;;;38.80;7.55;;;8.50;99.90;;;8.64;69.36;102758.97;5073651;28;20074;-64
2022/01/30 02:40:32;;;;;;;40.17;7.93;;;8.50;99.90;;;8.63;69.25;102720.25;5074101;28;20116;-64
2022/01/30 02:43:01;;;;;;;37.05;8.20;;;8.60;99.90;;;8.82;68.82;102741.13;5072950;28;20052;-63
2022/01/30 02:45:31;;;;;;;42.17;8.60;;;8.60;99.90;;;8.64;69.50;102743.13;5072602;28;20128;-63
2022/01/30 02:48:14;;;;;;;31.58;8.52;;;8.50;99.90;;;8.58;69.22;102727.09;5073885;28;20508;-63
2022/01/30 02:50:54;;;;;;;34.50;7.47;;;8.50;99.90;;;8.75;69.18;102741.78;5072540;28;20878;-63
2022/01/30 02:53:29;;;;;;;41.70;8.88;;;8.60;99.90;;;8.77;68.75;102740.03;5073582;28;20498;-63
2022/01/30 02:55:59;;;;;;;33.30;7.97;;;8.60;99.90;;;8.71;69.37;102740.75;5072182;28;20045;-64
2022/01/30 02:58:27;;;;;;;35.07;8.17;;;8.60;99.90;;;8.64;69.95;102727.31;5072402;28;20098;-63
2022/01/30 03:00:56;;;;;;;38.53;8.02;;;8.60;99.90;;;8.65;70.19;102727.34;5073641;28;20778;-63
2022/01/30 03:03:25;;;;;;;34.88;8.55;;;8.50;99.90;;;8.62;70.86;102722.00;5072383;28;20099;-63
2022/01/30 03:05:53;;;;;;;35.05;9.07;;;8.50;99.90;;;8.62;71.15;102729.91;5073956;28;20044;-63
2022/01/30 03:08:22;;;;;;;31.40;8.98;;;8.50;99.90;;;8.64;71.30;102724.66;5071129;28;20040;-63
2022/01/30 03:10:50;;;;;;;34.58;8.07;;;8.50;99.90;;;8.66;71.04;102733.53;5073771;28;20075;-63
2022/01/30 03:13:20;;;;;;;39.80;9.15;;;8.50;99.90;;;8.69;71.44;102731.88;5073766;28;20468;-63
2022/01/30 03:15:48;;;;;;;45.07;8.90;;;8.50;99.90;;;8.61;71.86;102730.75;5073383;28;20444;-63
2022/01/30 03:18:17;;;;;;;34.72;7.60;;;8.50;99.90;;;8.81;71.82;102747.22;5071692;28;20102;-63
2022/01/30 03:20:45;;;;;;;40.10;8.82;;;8.60;99.90;;;8.74;72.10;102746.16;5073254;28;20448;-63
2022/01/30 03:23:13;;;;;;;34.75;8.55;;;8.60;99.90;;;8.79;71.53;102763.00;5071708;28;20071;-63
2022/01/30 03:25:42;;;;;;;33.17;7.32;;;8.60;99.90;;;8.71;70.66;102760.97;5072802;28;20516;-63
2022/01/30 03:28:26;;;;;;;32.80;7.93;;;8.60;99.90;;;8.68;69.29;102755.59;5071673;28;20044;-63
2022/01/30 03:31:06;;;;;;;24.60;6.40;;;8.60;99.90;;;8.59;68.63;102753.56;5071563;28;20048;-63
2022/01/30 03:33:38;;;;;;;22.13;6.13;;;8.50;99.90;;;8.62;67.64;102761.56;5071568;28;20139;-63
2022/01/30 03:36:07;;;;;;;21.75;5.78;;;8.50;99.90;;;8.58;66.62;102764.03;5071491;28;20049;-62
2022/01/30 03:38:36;;;;;;;17.33;6.10;;;8.50;99.90;;;8.76;66.66;102770.84;5071107;28;20045;-63
2022/01/30 03:41:06;;;;;;;24.30;6.63;;;8.60;99.90;;;8.78;66.49;102774.44;5071084;28;20049;-63
2022/01/30 03:43:38;;;;;;;21.10;6.10;;;8.70;99.90;;;8.97;66.13;102768.91;5070967;28;20067;-63
2022/01/30 03:46:07;;;;;;;22.35;6.30;;;8.90;99.90;;;8.81;66.59;102770.97;5071227;28;20045;-63
2022/01/30 03:48:36;;;;;;;28.95;6.97;;;8.70;99.90;;;8.87;67.31;102771.19;5070782;28;20055;-63
2022/01/30 03:51:09;;;;;;;24.90;6.38;;;8.80;99.90;;;8.72;67.89;102765.41;5071159;28;20041;-63
2022/01/30 03:53:37;;;;;;;24.90;7.45;;;8.60;99.90;;;9.00;67.93;102765.47;5072269;28;20185;-63
2022/01/30 03:56:08;;;;;;;23.35;7.05;;;8.80;99.90;;;8.90;68.45;102776.56;5072438;28;20040;-63
2022/01/30 03:58:38;;;;;;;30.77;7.45;;;8.80;99.90;;;9.02;68.75;102769.03;5070867;28;20106;-63
2022/01/30 04:01:11;;;;;;;31.38;6.38;;;8.80;99.90;;;8.97;68.93;102766.25;5070995;28;20086;-63
2022/01/30 04:03:40;;;;;;;37.33;7.63;;;8.90;99.90;;;8.91;69.25;102776.63;5070809;28;20048;-63
2022/01/30 04:06:09;;;;;;;33.78;7.47;;;8.80;99.90;;;8.89;69.81;102766.84;5072050;28;20360;-63
2022/01/30 04:08:39;;;;;;;;;;;8.80;99.90;;;8.97;69.81;102787.38;5071231;28;20129;-64
2022/01/30 04:11:31;;;;;;;32.15;7.40;;;8.90;99.90;;;9.16;70.23;102786.22;5071262;28;19920;-63
2022/01/30 04:14:19;;;;;;;29.48;7.05;;;9.00;99.90;;;9.26;70.86;102780.38;5071938;28;20573;-63
2022/01/30 04:17:09;;;;;;;25.25;7.38;;;9.10;99.90;;;9.23;70.01;102775.03;5071755;28;20054;-63
2022/01/30 04:19:43;;;;;;;29.95;7.47;;;9.20;99.90;;;9.25;68.28;102783.00;5071604;28;20051;-63
2022/01/30 04:22:24;;;;;;;24.10;6.32;;;9.20;99.90;;;9.42;67.44;102781.75;5072177;28;20408;-63
2022/01/30 04:25:08;;;;;;;36.50;7.28;;;9.30;99.90;;;9.28;66.69;102786.63;5072116;28;20041;-63
2022/01/30 04:27:57;;;;;;;30.10;7.07;;;9.20;99.90;;;8.95;66.91;102790.81;5060325;28;20422;-63
2022/01/30 04:30:54;;;;;;;27.98;7.47;;;8.90;99.90;;;9.04;67.14;102796.38;5063063;28;20072;-63
2022/01/30 04:33:49;;;;;;;34.28;8.52;;;8.90;99.90;;;8.85;67.96;102786.06;5070635;28;20048;-63
2022/01/30 04:36:58;;;;;;;22.27;6.80;;;8.80;99.90;;;8.75;69.07;102783.97;5070891;28;20048;-63
2022/01/30 04:40:11;;;;;;;35.22;7.00;;;8.70;99.90;;;8.65;69.87;102790.66;5070628;28;20143;-63
2022/01/30 04:58:13;;;;;;;36.38;7.65;;;8.50;99.90;;;8.67;70.62;102809.22;5087258;28;20060;-63
2022/01/30 05:01:24;;;;;;;33.60;7.30;;;8.60;99.90;;;8.65;69.68;102816.16;5066735;28;20447;-63
2022/01/30 05:04:25;;;;;;;26.02;7.30;;;8.50;99.90;;;8.62;68.52;102819.59;5071220;28;20084;-63
2022/01/30 05:10:11;;;;;;;38.15;7.63;;;8.50;99.90;;;8.65;67.65;102826.72;5066438;28;20048;-63
2022/01/30 05:12:49;;;;;;;33.63;7.57;;;8.50;99.90;;;8.85;67.42;102817.72;5070450;28;20124;-63
2022/01/30 05:15:28;;;;;;;28.38;7.00;;;8.70;99.90;;;8.74;66.85;102809.47;5070513;28;20094;-63
2022/01/30 05:18:24;;;;;;;34.20;7.68;;;8.60;99.90;;;8.95;66.19;102822.47;5070912;28;20045;-63
2022/01/30 05:21:12;;;;;;;31.75;6.80;;;8.80;99.90;;;8.84;65.88;102831.78;5071446;28;20068;-63
2022/01/30 05:23:57;;;;;;;28.38;7.20;;;8.70;99.90;;;8.76;66.40;102822.69;5070048;28;20402;-63
2022/01/30 05:26:42;;;;;;;34.38;7.15;;;8.70;99.90;;;8.50;66.52;102828.78;5070072;28;20446;-63
2022/01/30 05:29:50;;;;;;;36.38;7.45;;;8.50;99.90;;;8.35;67.44;102838.81;5048746;28;20517;-63
2022/01/30 05:32:37;;;;;;;36.42;7.18;;;8.30;99.90;;;8.39;67.87;102846.88;5035955;28;20064;-63
2022/01/30 05:35:17;;;;;;;30.48;7.47;;;8.30;99.90;;;8.43;68.04;102827.69;5067025;28;20048;-63
2022/01/30 05:38:04;;;;;;;34.08;7.25;;;8.40;99.90;;;8.47;67.70;102839.25;5075304;28;20041;-63
2022/01/30 05:40:52;;;;;;;34.92;7.95;;;8.40;99.90;;;8.46;68.44;102853.28;5074996;28;20146;-63
2022/01/30 05:43:40;;;;;;;29.33;7.30;;;8.30;99.90;;;8.64;67.91;102859.19;5074882;28;20050;-63
2022/01/30 05:46:31;;;;;;;40.80;8.13;;;8.50;99.90;;;8.73;68.20;102864.81;5073748;28;20048;-63
2022/01/30 05:49:16;;;;;;;34.67;7.65;;;8.50;99.90;;;8.97;67.17;102873.56;5073619;28;20045;-63
2022/01/30 05:52:08;;;;;;;29.60;7.53;;;8.80;99.90;;;9.05;66.52;102869.44;5064383;28;20379;-63
2022/01/30 05:54:53;;;;;;;31.70;7.63;;;8.90;99.90;;;8.86;67.52;102882.88;5073317;28;20472;-63
2022/01/30 05:57:21;;;;;;;40.15;8.98;;;8.80;99.90;;;8.87;67.12;102884.66;5073608;28;20056;-64
2022/01/30 05:59:52;;;;;;;49.00;7.78;;;8.80;99.90;;;8.94;67.24;102894.59;5073863;28;20106;-63
2022/01/30 06:02:40;;;;;;;32.70;7.68;;;8.80;99.90;;;9.10;66.70;102904.81;5074961;28;20051;-63
2022/01/30 06:05:09;;;;;;;30.88;8.05;;;8.90;99.90;;;8.85;66.88;102902.16;5073314;28;20044;-63
2022/01/30 06:07:47;;;;;;;30.83;7.95;;;8.80;99.90;;;8.90;67.00;102911.16;5072973;28;20074;-64
2022/01/30 06:10:16;;;;;;;44.70;9.40;;;8.80;99.90;;;9.21;66.85;102905.19;5073058;28;20405;-63
2022/01/30 06:12:45;;;;;;;33.08;7.65;;;9.00;99.90;;;9.19;66.63;102905.16;5074100;28;20037;-63
2022/01/30 06:15:14;;;;;;;34.20;7.57;;;9.00;99.90;;;9.22;66.47;102907.88;5074482;28;20490;-63
2022/01/30 06:17:44;;;;;;;37.92;8.40;;;9.10;99.90;;;9.37;65.73;102908.38;5072957;28;20078;-63
2022/01/30 06:20:30;;;;;;;37.03;8.07;;;9.20;99.90;;;9.25;65.57;102915.00;5074420;28;20055;-63
2022/01/30 06:23:22;;;;;;;29.75;8.55;;;9.10;99.90;;;9.05;65.60;102916.97;5074175;28;20074;-62
2022/01/30 06:26:16;;;;;;;38.00;8.80;;;9.00;99.90;;;8.88;64.52;102897.00;5065293;28;20515;-63
2022/01/30 06:29:03;;;;;;;30.88;8.00;;;9.00;99.90;;;8.92;65.35;102915.63;5073884;28;20063;-63
2022/01/30 06:31:58;;;;;;;37.70;8.13;;;8.80;99.90;;;9.12;65.17;102908.41;5065311;28;20057;-63
2022/01/30 06:34:45;;;;;;;33.38;8.52;;;9.00;99.90;;;9.25;64.42;102912.38;5074104;28;20071;-63
2022/01/30 06:37:33;;;;;;;36.45;8.80;;;9.10;99.90;;;8.95;63.77;102909.56;5073749;28;20095;-63
2022/01/30 06:40:16;;;;;;;34.00;8.05;;;9.00;99.90;;;8.90;64.06;102903.25;5072554;28;20070;-63
2022/01/30 06:43:05;;;;;;;25.73;8.10;;;8.90;99.90;;;9.24;63.40;102934.31;5052074;28;20098;-63
2022/01/30 06:46:00;;;;;;;37.13;8.18;;;9.10;99.90;;;9.15;63.15;102929.66;5064889;28;20056;-63
2022/01/30 06:48:46;;;;;;;36.85;7.93;;;9.10;99.90;;;9.01;63.31;102936.19;5073692;28;20062;-63
2022/01/30 06:51:33;;;;;;;41.10;8.25;;;8.90;99.90;;;9.14;63.62;102933.13;5073494;28;20390;-63
2022/01/30 06:54:20;;;;;;;36.65;8.35;;;9.00;99.90;;;9.17;63.52;102929.69;5073748;28;20133;-63
2022/01/30 06:57:09;;;;;;;36.53;7.63;;;9.00;99.90;;;8.97;63.77;102927.25;5073662;28;20055;-63
2022/01/30 06:59:57;;;;;;;36.88;8.25;;;8.90;99.90;;;8.92;64.02;102914.75;5073382;28;20055;-63
2022/01/30 07:02:45;;;;;;;38.75;8.82;;;8.90;99.90;;;9.05;64.10;102924.88;5073201;28;20853;-63
2022/01/30 07:05:27;;;;;;;32.88;7.65;;;8.90;99.90;;;9.04;65.38;102926.63;5072053;28;20059;-63
2022/01/30 07:08:21;;;;;;;29.05;8.40;;;8.90;99.90;;;9.34;65.51;102929.41;5071976;28;20123;-63
2022/01/30 07:10:49;;;;;;;42.83;9.07;;;9.10;99.90;;;9.33;66.30;102935.53;5073098;28;20098;-63
2022/01/30 07:13:19;;;;;;;37.17;9.05;;;9.20;99.90;;;9.08;68.81;102938.19;5071978;28;20036;-63
2022/01/30 07:15:48;;;;;;;38.40;9.00;;;9.00;99.90;;;9.02;69.87;102941.50;5071909;28;20552;-63
2022/01/30 07:18:16;;;;;;;40.92;7.75;;;8.90;99.90;;;9.01;70.71;102937.09;5073276;28;20083;-63
2022/01/30 07:20:45;;;;;;;41.53;9.63;;;8.90;99.90;;;8.90;70.64;102937.56;5073571;28;20056;-63
2022/01/30 07:23:13;;;;;;;43.30;8.73;;;8.80;99.90;;;8.78;71.27;102940.66;5073278;28;20045;-63
2022/01/30 07:25:43;;;;;;;52.88;9.95;;;8.70;99.90;;;8.83;70.93;102960.19;5072908;28;20042;-63
2022/01/30 07:28:11;;;;;;;51.47;9.15;;;8.70;99.90;;;8.63;71.16;102953.25;5073157;28;20071;-63
2022/01/30 07:30:41;;;;;;;45.03;9.60;;;8.60;99.90;;;8.70;69.86;102972.88;5073026;28;20102;-63
2022/01/30 07:33:10;;;;;;;36.22;7.72;;;8.60;99.90;;;8.60;69.31;102968.09;5073132;28;20478;-63
2022/01/30 07:35:42;;;;;;;35.33;8.68;;;8.50;99.90;;;8.54;68.86;102968.75;5073303;28;20467;-63
2022/01/30 07:38:10;;;;;;;35.70;8.85;;;8.40;99.90;;;8.70;68.37;102971.13;5072897;28;20049;-63
2022/01/30 07:40:39;;;;;;;34.47;9.07;;;8.40;99.90;;;8.64;68.15;102968.25;5073033;28;20135;-63
2022/01/30 07:43:07;;;;;;;39.65;8.52;;;8.40;99.90;;;8.59;68.16;102969.84;5072680;28;20071;-63
2022/01/30 07:45:40;;;;;;;37.75;8.70;;;8.40;99.90;;;8.72;67.56;102966.81;5071231;28;20075;-63
2022/01/30 07:48:09;;;;;;;32.60;9.82;;;8.50;99.90;;;8.78;67.12;102971.41;5072506;28;20045;-64
2022/01/30 07:50:37;;;;;;;44.15;9.50;;;8.50;99.90;;;8.79;66.99;102967.91;5072608;28;20067;-63
2022/01/30 07:53:05;;;;;;;35.03;8.30;;;8.50;99.90;;;8.75;67.29;102960.75;5071853;28;20040;-63
2022/01/30 07:55:34;;;;;;;39.70;9.57;;;8.50;99.90;;;8.88;67.79;102965.63;5071256;28;20072;-63
2022/01/30 07:58:02;;;;;;;41.67;9.60;;;8.60;99.90;;;8.98;67.01;102970.41;5072327;28;20036;-63
2022/01/30 08:00:31;;;;;;;42.58;8.93;;;8.70;99.90;;;8.99;66.63;102959.00;5072584;28;20052;-63
2022/01/30 08:03:00;;;;;;;39.20;8.90;;;8.80;99.90;;;8.95;66.45;102973.81;5072157;28;20116;-63
2022/01/30 08:05:29;;;;;;;49.88;10.88;;;8.70;99.90;;;8.87;66.89;102969.09;5087901;28;20048;-63
2022/01/30 08:07:58;;;;;;;46.03;10.13;;;8.70;99.90;;;8.99;67.03;102956.34;5071899;28;20127;-63
2022/01/30 08:10:26;;;;;;;37.55;8.85;;;8.80;99.90;;;8.90;67.13;102956.03;5071883;28;20454;-63
2022/01/30 08:12:54;;;;;;;46.60;10.10;;;8.70;99.90;;;8.94;67.52;102960.56;5071791;28;20054;-63
2022/01/30 08:15:23;;;;;;;37.40;8.35;;;8.70;99.90;;;9.13;66.71;102962.09;5071794;28;20446;-62
2022/01/30 08:17:51;;;;;;;37.42;9.48;;;8.90;99.90;;;9.13;66.97;102962.09;5071853;28;20080;-62
2022/01/30 08:20:25;;;;;;;33.42;8.98;;;8.90;99.90;;;9.10;66.33;102962.88;5072249;28;20048;-62
2022/01/30 08:22:55;;;;;;;33.75;8.60;;;8.90;99.90;;;9.23;65.94;102965.13;5071442;28;20048;-60
2022/01/30 08:25:25;;;;;;;41.65;9.05;;;9.00;99.90;;;9.02;65.24;102946.78;5071778;28;20402;-60
2022/01/30 08:27:55;;;;;;;40.50;9.23;;;9.00;99.90;;;9.18;65.06;102971.97;5071887;28;20101;-60
2022/01/30 08:30:24;;;;;;;40.25;9.35;;;9.00;99.90;;;9.21;65.44;102976.47;5071595;28;20532;-60
2022/01/30 08:32:52;;;;;;;39.78;9.63;;;9.00;99.90;;;9.35;64.85;102976.09;5071421;28;20072;-61
2022/01/30 08:35:23;;;;;;;39.20;9.70;;;9.10;99.90;;;8.63;65.20;102870.63;5070506;28;20044;-61
2022/01/30 08:37:51;;;;;;;40.33;9.38;;;9.10;99.90;;;9.40;65.59;102995.66;5071594;28;20056;-61
2022/01/30 08:40:21;;;;;;;33.72;9.25;;;9.10;99.90;;;9.51;64.64;102991.63;5071728;28;20044;-62
2022/01/30 08:42:51;;;;;;;44.08;9.30;;;9.30;99.90;;;9.53;64.03;102982.03;5070005;28;20050;-62
2022/01/30 08:45:22;;;;;;;36.17;8.70;;;9.30;99.90;;;9.79;63.54;102985.53;5070121;28;20098;-61
2022/01/30 08:47:52;;;;;;;39.08;8.55;;;9.50;99.90;;;9.64;63.71;102991.19;5071488;28;20551;-61
2022/01/30 08:50:24;;;;;;;31.55;8.95;;;9.50;99.90;;;9.68;64.20;103003.66;5071372;28;20044;-61
2022/01/30 08:52:53;;;;;;;42.78;9.52;;;9.40;99.90;;;9.59;63.90;102986.59;5071792;28;20120;-61
2022/01/30 08:55:21;;;;;;;43.88;9.30;;;9.40;99.90;;;9.28;63.84;102930.94;5071435;28;20114;-61
2022/01/30 08:57:50;;;;;;;39.10;8.90;;;9.40;99.90;;;9.67;63.56;102993.94;5071191;28;20102;-62
2022/01/30 09:00:19;;;;;;;41.35;9.60;;;9.40;99.90;;;9.32;63.92;102969.81;5071790;28;20162;-62
2022/01/30 09:02:48;;;;;;;37.92;9.07;;;9.30;99.90;;;9.61;63.84;102992.84;5069987;28;20049;-61
2022/01/30 09:05:17;;;;;;;34.15;9.73;;;9.30;99.90;;;9.71;63.74;102997.59;5071846;28;20106;-61
2022/01/30 09:07:46;;;;;;;38.63;8.70;;;9.40;99.90;;;9.73;62.81;102994.16;5075403;28;20101;-61
2022/01/30 09:10:15;;;;;;;46.63;8.30;;;9.60;99.90;;;9.84;62.59;103005.06;5075561;28;20048;-62
2022/01/30 09:12:43;;;;;;;37.05;8.80;;;9.60;99.90;;;9.76;62.03;103010.09;5075885;28;20095;-61
2022/01/30 09:15:14;;;;;;;38.05;8.75;;;9.60;99.90;;;10.00;62.37;103024.13;5075259;28;20064;-61
2022/01/30 09:17:43;;;;;;;34.30;7.97;;;9.70;99.90;;;10.17;61.71;103022.06;5075354;28;20056;-61
2022/01/30 09:20:13;;;;;;;38.95;8.45;;;9.90;99.90;;;10.51;60.99;103013.44;5075721;28;20040;-61
2022/01/30 09:22:46;;;;;;;34.22;8.65;;;10.20;99.90;;;11.24;60.04;103019.97;5075207;28;20037;-63
2022/01/30 09:25:14;;;;;;;32.60;9.30;;;10.90;99.90;;;11.38;59.00;103020.34;5075475;28;20110;-61
2022/01/30 09:27:44;;;;;;;34.90;8.98;;;11.20;99.90;;;11.52;58.11;102997.72;5075318;28;20064;-60
2022/01/30 09:30:13;;;;;;;28.88;8.27;;;11.50;99.90;;;11.94;57.37;103040.41;5074981;28;20469;-61
2022/01/30 09:32:43;;;;;;;33.50;7.57;;;11.70;99.90;;;12.15;56.92;103040.91;5073704;28;20105;-62
2022/01/30 09:35:11;;;;;;;28.13;7.50;;;12.00;99.90;;;12.15;57.55;103046.22;5075256;28;20048;-62
2022/01/30 09:37:40;;;;;;;34.30;8.60;;;12.00;99.90;;;11.77;57.09;103040.88;5075084;28;20040;-61
2022/01/30 09:40:13;;;;;;;41.33;7.85;;;11.70;99.90;;;11.68;57.32;103038.00;5075651;28;20164;-60
2022/01/30 09:42:44;;;;;;;37.20;8.55;;;11.60;99.90;;;11.46;57.75;103040.88;5074925;28;20063;-62
2022/01/30 09:45:14;;;;;;;39.88;8.20;;;11.40;99.90;;;11.20;58.50;103039.28;5075080;28;20090;-60
2022/01/30 09:47:43;;;;;;;36.97;8.98;;;11.20;99.90;;;11.14;58.54;103041.75;5075247;28;20184;-61
2022/01/30 09:50:12;;;;;;;38.05;8.48;;;11.00;99.90;;;10.45;59.28;103045.88;5074645;28;20401;-62
2022/01/30 09:52:40;;;;;;;40.53;8.40;;;10.40;99.90;;;10.43;59.08;103042.28;5074657;28;20049;-62
2022/01/30 09:55:11;;;;;;;44.17;8.63;;;10.30;99.90;;;10.11;59.91;103043.00;5074830;28;20048;-63
2022/01/30 09:57:39;;;;;;;30.30;8.10;;;10.00;99.90;;;10.26;60.03;103047.91;5073787;28;20432;-62
2022/01/30 10:00:11;;;;;;;32.85;7.78;;;10.10;99.90;;;10.66;59.07;103049.19;5075373;28;20102;-61
2022/01/30 10:02:41;;;;;;;36.17;8.48;;;10.40;99.90;;;10.79;59.19;103037.19;5073738;28;20053;-62
2022/01/30 10:05:12;;;;;;;37.55;9.18;;;10.60;99.90;;;11.13;58.51;103039.97;5074360;28;20047;-61
2022/01/30 10:07:42;;;;;;;;;;;10.90;99.90;;;11.24;58.82;103027.94;5074622;28;20044;-62
2022/01/30 10:10:17;;;;;;;34.42;8.55;;;11.00;99.90;;;11.46;58.36;103030.28;5074211;28;19920;-61
2022/01/30 10:13:06;;;;;;;37.25;8.55;;;11.30;99.90;;;11.84;58.00;103041.03;5074013;28;20111;-63
2022/01/30 10:15:54;;;;;;;44.88;8.77;;;11.60;99.90;;;11.40;58.56;103045.16;5074130;28;20108;-63
2022/01/30 10:18:23;;;;;;;38.42;9.13;;;11.40;99.90;;;11.27;59.25;103035.94;5074132;28;20470;-62
2022/01/30 10:20:52;;;;;;;38.00;8.38;;;11.20;99.90;;;11.01;59.96;103044.94;5072929;28;20360;-62
2022/01/30 10:23:20;;;;;;;37.20;7.28;;;10.90;99.90;;;10.99;59.85;103045.72;5073975;28;20185;-63
2022/01/30 10:25:55;;;;;;;34.17;7.95;;;10.90;99.90;;;10.66;60.72;103049.19;5074054;28;20090;-62
2022/01/30 10:28:30;;;;;;;33.30;8.48;;;10.60;99.90;;;10.79;61.23;103048.69;5074060;28;20078;-62
2022/01/30 10:31:03;;;;;;;43.28;8.23;;;10.50;99.90;;;10.69;61.17;103051.91;5074279;28;20090;-61
2022/01/30 10:33:45;;;;;;;40.50;9.18;;;10.50;99.90;;;10.72;60.29;103059.94;5073867;28;20033;-60
2022/01/30 10:36:19;;;;;;;34.80;8.90;;;10.60;99.90;;;10.53;60.32;103057.59;5073943;28;20040;-62
2022/01/30 10:39:04;;;;;;;48.67;8.80;;;10.50;99.90;;;10.41;60.25;103058.97;5074652;28;20032;-61
2022/01/30 10:41:38;;;;;;;46.03;8.98;;;10.40;99.90;;;10.48;60.17;103069.78;5074431;28;20044;-61
2022/01/30 10:44:08;;;;;;;33.10;8.68;;;10.30;99.90;;;10.56;60.03;103073.56;5073795;28;20068;-62
2022/01/30 10:46:42;;;;;;;31.98;8.05;;;10.40;99.90;;;10.56;59.37;103035.63;5073503;28;20052;-61
2022/01/30 10:49:13;;;;;;;43.60;7.95;;;10.50;99.90;;;10.63;58.85;103058.75;5074027;28;20076;-62
2022/01/30 10:51:52;;;;;;;;;;;10.50;99.90;;;10.50;59.51;103068.09;5074482;28;20055;-61
2022/01/30 10:54:20;;;;;;;28.92;7.90;;;10.50;99.90;;;10.32;59.92;103067.50;5074126;28;19956;-61
2022/01/30 10:57:02;;;;;;;39.38;8.40;;;10.30;99.90;;;10.63;59.75;103066.69;5074286;28;20091;-61
2022/01/30 10:59:31;;;;;;;45.28;8.43;;;10.40;99.90;;;10.25;60.29;103057.59;5073537;28;20090;-61
2022/01/30 11:02:13;;;;;;;40.63;8.30;;;10.10;99.90;;;10.30;60.41;103041.88;5073322;28;20079;-61
2022/01/30 11:04:43;;;;;;;38.30;9.20;;;10.20;99.90;;;10.80;60.57;103071.66;5073461;28;20123;-60
2022/01/30 11:07:11;;;;;;;37.33;8.40;;;10.50;99.90;;;11.21;59.23;103064.91;5072133;28;20114;-60
2022/01/30 11:09:43;;;;;;;38.33;8.70;;;10.90;99.90;;;11.17;59.29;103067.47;5073458;28;20048;-61
2022/01/30 11:12:15;;;;;;;40.15;8.63;;;11.00;99.90;;;11.30;58.50;103062.53;5073058;28;20044;-61
2022/01/30 11:15:04;;;;;;;30.55;8.73;;;11.20;99.90;;;11.27;57.52;103070.38;5073418;28;20048;-65
2022/01/30 11:17:33;;;;;;;38.33;8.00;;;11.10;99.90;;;11.17;55.75;103068.31;5071605;28;20376;-62
2022/01/30 11:20:02;;;;;;;38.22;9.30;;;11.10;99.90;;;11.42;55.66;103065.50;5072741;28;20041;-61
2022/01/30 11:22:32;;;;;;;29.08;7.85;;;11.20;99.90;;;11.30;55.16;103075.78;5072857;28;20044;-65
2022/01/30 11:25:05;;;;;;;37.97;8.40;;;11.20;99.90;;;10.86;55.01;103003.00;5072902;28;20048;-66
2022/01/30 11:27:35;;;;;;;34.78;8.43;;;11.20;99.90;;;10.85;56.06;103070.06;5072712;28;20051;-60